createdAt,value
2024-05-09T00:00:15.772Z,964.4300
2024-05-09T00:00:30.811Z,964.4300
2024-05-09T00:00:42.863Z,964.4500
2024-05-09T00:00:53.999Z,964.4500
2024-05-09T00:01:05.181Z,964.4500
2024-05-09T00:01:16.399Z,964.4300
2024-05-09T00:01:27.474Z,964.4300
2024-05-09T00:01:38.511Z,964.4300
2024-05-09T00:01:49.560Z,964.4300
2024-05-09T00:02:00.600Z,964.4500
2024-05-09T00:02:11.719Z,964.4500
2024-05-09T00:02:22.922Z,964.4500
2024-05-09T00:02:34.133Z,964.4700
2024-05-09T00:02:45.178Z,964.4300
2024-05-09T00:02:56.225Z,964.4500
2024-05-09T00:03:07.889Z,964.4300
2024-05-09T00:03:19.618Z,964.4500
2024-05-09T00:03:30.691Z,964.4500
2024-05-09T00:03:41.876Z,964.4500
2024-05-09T00:03:53.083Z,964.4500
2024-05-09T00:04:04.283Z,964.4300
2024-05-09T00:04:15.498Z,964.4300
2024-05-09T00:04:26.577Z,964.4300
2024-05-09T00:04:37.691Z,964.4100
2024-05-09T00:04:48.764Z,964.4300
2024-05-09T00:04:59.956Z,964.4300
2024-05-09T00:05:11.674Z,964.4300
2024-05-09T00:05:22.831Z,964.4100
2024-05-09T00:05:34.149Z,964.4100
2024-05-09T00:05:45.506Z,964.4100
2024-05-09T00:05:56.671Z,964.3900
2024-05-09T00:06:07.976Z,964.4500
2024-05-09T00:06:19.134Z,964.4300
2024-05-09T00:06:30.181Z,964.4300
2024-05-09T00:06:41.199Z,964.4300
2024-05-09T00:06:52.246Z,964.4500
2024-05-09T00:07:03.297Z,964.4300
2024-05-09T00:07:14.353Z,964.4300
2024-05-09T00:07:25.374Z,964.4300
2024-05-09T00:07:36.424Z,964.4300
2024-05-09T00:07:47.503Z,964.4300
2024-05-09T00:07:58.592Z,964.4300
2024-05-09T00:08:09.837Z,964.4300
2024-05-09T00:08:21.382Z,964.4300
2024-05-09T00:08:32.637Z,964.4100
2024-05-09T00:08:43.756Z,964.4300
2024-05-09T00:08:54.855Z,964.4300
2024-05-09T00:09:05.913Z,964.4300
2024-05-09T00:09:16.963Z,964.4300
2024-05-09T00:09:27.972Z,964.4300
2024-05-09T00:09:39.008Z,964.4300
2024-05-09T00:09:50.056Z,964.4300
2024-05-09T00:10:01.135Z,964.4300
2024-05-09T00:10:22.091Z,964.4300
2024-05-09T00:10:35.732Z,964.4300
2024-05-09T00:10:46.151Z,964.4500
2024-05-09T00:10:57.333Z,964.4300
2024-05-09T00:11:08.572Z,964.4500
2024-05-09T00:11:19.768Z,964.4300
2024-05-09T00:11:30.891Z,964.4300
2024-05-09T00:11:42.084Z,964.4100
2024-05-09T00:11:53.333Z,964.3900
2024-05-09T00:12:04.585Z,964.3900
2024-05-09T00:12:15.782Z,964.3900
2024-05-09T00:12:26.907Z,964.3900
2024-05-09T00:12:37.955Z,964.4100
2024-05-09T00:12:49.004Z,964.4100
2024-05-09T00:13:00.053Z,964.3900
2024-05-09T00:13:11.492Z,964.3900
2024-05-09T00:13:22.790Z,964.3900
2024-05-09T00:13:33.819Z,964.3900
2024-05-09T00:13:44.946Z,964.3900
2024-05-09T00:13:56.093Z,964.3900
2024-05-09T00:14:07.206Z,964.3900
2024-05-09T00:14:18.282Z,964.3900
2024-05-09T00:14:29.399Z,964.3700
2024-05-09T00:14:40.455Z,964.3900
2024-05-09T00:14:51.487Z,964.3900
2024-05-09T00:15:02.494Z,964.3700
2024-05-09T00:15:13.546Z,964.3900
2024-05-09T00:15:24.602Z,964.3900
2024-05-09T00:15:36.453Z,964.3900
2024-05-09T00:15:48.047Z,964.3900
2024-05-09T00:15:59.087Z,964.3700
2024-05-09T00:16:10.153Z,964.3700
2024-05-09T00:16:21.201Z,964.3700
2024-05-09T00:16:32.262Z,964.3700
2024-05-09T00:16:43.334Z,964.3700
2024-05-09T00:16:54.505Z,964.3500
2024-05-09T00:17:05.571Z,964.3900
2024-05-09T00:17:16.751Z,964.3900
2024-05-09T00:17:27.964Z,964.3700
2024-05-09T00:17:39.392Z,964.3700
2024-05-09T00:17:50.714Z,964.3500
2024-05-09T00:18:02.270Z,964.3700
2024-05-09T00:18:13.839Z,964.3500
2024-05-09T00:18:25.173Z,964.3500
2024-05-09T00:18:36.509Z,964.3300
2024-05-09T00:18:47.659Z,964.3300
2024-05-09T00:18:58.964Z,964.3300
2024-05-09T00:19:10.284Z,964.3500
2024-05-09T00:19:21.579Z,964.3500
2024-05-09T00:19:32.785Z,964.3500
2024-05-09T00:19:43.964Z,964.3500
2024-05-09T00:19:55.067Z,964.3500
2024-05-09T00:20:14.269Z,964.2500
2024-05-09T00:20:28.565Z,964.3300
2024-05-09T00:20:41.276Z,964.3300
2024-05-09T00:20:52.723Z,964.2500
2024-05-09T00:21:03.881Z,964.2500
2024-05-09T00:21:15.141Z,964.2300
2024-05-09T00:21:26.191Z,964.2300
2024-05-09T00:21:37.261Z,964.2100
2024-05-09T00:21:48.278Z,964.2300
2024-05-09T00:21:59.315Z,964.2500
2024-05-09T00:22:10.341Z,964.2500
2024-05-09T00:22:21.401Z,964.2300
2024-05-09T00:22:32.451Z,964.2100
2024-05-09T00:22:43.556Z,964.2100
2024-05-09T00:22:54.660Z,964.1900
2024-05-09T00:23:05.731Z,964.2100
2024-05-09T00:23:16.853Z,964.1900
2024-05-09T00:23:27.978Z,964.1900
2024-05-09T00:23:39.084Z,964.1700
2024-05-09T00:23:50.190Z,964.1700
2024-05-09T00:24:01.233Z,964.2100
2024-05-09T00:24:12.276Z,964.2100
2024-05-09T00:24:23.339Z,964.1900
2024-05-09T00:24:34.372Z,964.1900
2024-05-09T00:24:45.428Z,964.1900
2024-05-09T00:24:56.507Z,964.1900
2024-05-09T00:25:07.541Z,964.2100
2024-05-09T00:25:18.609Z,964.2100
2024-05-09T00:25:29.650Z,964.2100
2024-05-09T00:25:40.743Z,964.1900
2024-05-09T00:25:51.865Z,964.1700
2024-05-09T00:26:02.999Z,964.1900
2024-05-09T00:26:14.071Z,964.2100
2024-05-09T00:26:25.179Z,964.2100
2024-05-09T00:26:36.385Z,964.2100
2024-05-09T00:26:47.429Z,964.2100
2024-05-09T00:26:58.483Z,964.2100
2024-05-09T00:27:11.987Z,964.2100
2024-05-09T00:27:24.369Z,964.1900
2024-05-09T00:27:35.435Z,964.1900
2024-05-09T00:27:46.498Z,964.2100
2024-05-09T00:27:57.539Z,964.1900
2024-05-09T00:28:08.564Z,964.1900
2024-05-09T00:28:19.717Z,964.1900
2024-05-09T00:28:30.771Z,964.1900
2024-05-09T00:28:41.863Z,964.1900
2024-05-09T00:28:53.003Z,964.1900
2024-05-09T00:29:04.078Z,964.2100
2024-05-09T00:29:15.182Z,964.2100
2024-05-09T00:29:26.316Z,964.1900
2024-05-09T00:29:37.464Z,964.1900
2024-05-09T00:29:48.475Z,964.1900
2024-05-09T00:29:59.542Z,964.1700
2024-05-09T00:30:14.506Z,964.1900
2024-05-09T00:30:33.750Z,964.1700
2024-05-09T00:30:44.442Z,964.1700
2024-05-09T00:30:55.492Z,964.1700
2024-05-09T00:31:06.541Z,964.1700
2024-05-09T00:31:17.625Z,964.1900
2024-05-09T00:31:28.658Z,964.1900
2024-05-09T00:31:39.726Z,964.1700
2024-05-09T00:31:51.100Z,964.1700
2024-05-09T00:32:02.359Z,964.1700
2024-05-09T00:32:13.450Z,964.1700
2024-05-09T00:32:24.682Z,964.1700
2024-05-09T00:32:35.985Z,964.1700
2024-05-09T00:32:47.312Z,964.1700
2024-05-09T00:32:58.697Z,964.1900
2024-05-09T00:33:10.977Z,964.1700
2024-05-09T00:33:23.134Z,964.1700
2024-05-09T00:33:34.864Z,964.1700
2024-05-09T00:33:46.097Z,964.1700
2024-05-09T00:33:57.589Z,964.1700
2024-05-09T00:34:09.028Z,964.1700
2024-05-09T00:34:20.306Z,964.1700
2024-05-09T00:34:31.567Z,964.1700
2024-05-09T00:34:42.733Z,964.1500
2024-05-09T00:34:53.790Z,964.1500
2024-05-09T00:35:04.875Z,964.1500
2024-05-09T00:35:16.107Z,964.1500
2024-05-09T00:35:27.227Z,964.1300
2024-05-09T00:35:38.836Z,964.1300
2024-05-09T00:35:50.131Z,964.1500
2024-05-09T00:36:01.186Z,964.1500
2024-05-09T00:36:12.240Z,964.1300
2024-05-09T00:36:23.296Z,964.1700
2024-05-09T00:36:34.356Z,964.1500
2024-05-09T00:36:45.426Z,964.1700
2024-05-09T00:36:56.491Z,964.1500
2024-05-09T00:37:07.555Z,964.1500
2024-05-09T00:37:18.586Z,964.1500
2024-05-09T00:37:29.633Z,964.1500
2024-05-09T00:37:40.944Z,964.1500
2024-05-09T00:37:52.037Z,964.1500
2024-05-09T00:38:03.345Z,964.1300
2024-05-09T00:38:14.631Z,964.1300
2024-05-09T00:38:25.737Z,964.1500
2024-05-09T00:38:37.031Z,964.1500
2024-05-09T00:38:48.121Z,964.1900
2024-05-09T00:38:59.181Z,964.1700
2024-05-09T00:39:10.226Z,964.1700
2024-05-09T00:39:21.250Z,964.1700
2024-05-09T00:39:32.301Z,964.1700
2024-05-09T00:39:43.328Z,964.1500
2024-05-09T00:39:54.373Z,964.1500
2024-05-09T00:40:26.440Z,964.1700
2024-05-09T00:40:38.794Z,964.1700
2024-05-09T00:40:50.849Z,964.1700
2024-05-09T00:41:01.955Z,964.1700
2024-05-09T00:41:14.148Z,964.1900
2024-05-09T00:41:26.345Z,964.1700
2024-05-09T00:41:37.501Z,964.1700
2024-05-09T00:41:48.641Z,964.1500
2024-05-09T00:41:59.671Z,964.1700
2024-05-09T00:42:10.721Z,964.1700
2024-05-09T00:42:21.805Z,964.1700
2024-05-09T00:42:32.864Z,964.1500
2024-05-09T00:42:43.896Z,964.1500
2024-05-09T00:42:54.955Z,964.1700
2024-05-09T00:43:06.061Z,964.1700
2024-05-09T00:43:17.095Z,964.1500
2024-05-09T00:43:28.134Z,964.1500
2024-05-09T00:43:39.172Z,964.1700
2024-05-09T00:43:50.299Z,964.1900
2024-05-09T00:44:01.411Z,964.1700
2024-05-09T00:44:12.491Z,964.1700
2024-05-09T00:44:23.658Z,964.1500
2024-05-09T00:44:34.775Z,964.1700
2024-05-09T00:44:45.796Z,964.1700
2024-05-09T00:44:56.854Z,964.1700
2024-05-09T00:45:07.895Z,964.1700
2024-05-09T00:45:18.955Z,964.1700
2024-05-09T00:45:30.003Z,964.1900
2024-05-09T00:45:41.070Z,964.1700
2024-05-09T00:45:52.148Z,964.1900
2024-05-09T00:46:03.168Z,964.1900
2024-05-09T00:46:14.233Z,964.1700
2024-05-09T00:46:25.287Z,964.1900
2024-05-09T00:46:36.387Z,964.1900
2024-05-09T00:46:47.475Z,964.1900
2024-05-09T00:46:58.559Z,964.1900
2024-05-09T00:47:09.938Z,964.2100
2024-05-09T00:47:21.297Z,964.2100
2024-05-09T00:47:32.536Z,964.2100
2024-05-09T00:47:43.878Z,964.2300
2024-05-09T00:47:55.144Z,964.2300
2024-05-09T00:48:07.102Z,964.2300
2024-05-09T00:48:21.401Z,964.1900
2024-05-09T00:48:32.967Z,964.2100
2024-05-09T00:48:44.267Z,964.2100
2024-05-09T00:48:55.545Z,964.2100
2024-05-09T00:49:06.726Z,964.1900
2024-05-09T00:49:17.925Z,964.2300
2024-05-09T00:49:29.253Z,964.2100
2024-05-09T00:49:40.540Z,964.2100
2024-05-09T00:49:51.783Z,964.2100
2024-05-09T00:50:04.154Z,964.1900
2024-05-09T00:50:19.438Z,964.2100
2024-05-09T00:50:36.218Z,964.2100
2024-05-09T00:50:49.391Z,964.2100
2024-05-09T00:51:00.619Z,964.1900
2024-05-09T00:51:11.785Z,964.2100
2024-05-09T00:51:22.906Z,964.1900
2024-05-09T00:51:33.983Z,964.1900
2024-05-09T00:51:45.051Z,964.1900
2024-05-09T00:51:56.102Z,964.1700
2024-05-09T00:52:07.162Z,964.1700
2024-05-09T00:52:18.188Z,964.1700
2024-05-09T00:52:29.245Z,964.1500
2024-05-09T00:52:40.286Z,964.1900
2024-05-09T00:52:51.489Z,964.1900
2024-05-09T00:53:02.600Z,964.1700
2024-05-09T00:53:13.710Z,964.1700
2024-05-09T00:53:24.867Z,964.1900
2024-05-09T00:53:36.022Z,964.1700
2024-05-09T00:53:47.132Z,964.1700
2024-05-09T00:53:58.155Z,964.1700
2024-05-09T00:54:09.218Z,964.1700
2024-05-09T00:54:20.278Z,964.1700
2024-05-09T00:54:31.323Z,964.1900
2024-05-09T00:54:42.368Z,964.1700
2024-05-09T00:54:53.424Z,964.1700
2024-05-09T00:55:04.475Z,964.1900
2024-05-09T00:55:15.529Z,964.1700
2024-05-09T00:55:26.610Z,964.1900
2024-05-09T00:55:37.674Z,964.1700
2024-05-09T00:55:48.752Z,964.1700
2024-05-09T00:55:59.890Z,964.1700
2024-05-09T00:56:11.200Z,964.1700
2024-05-09T00:56:22.381Z,964.1700
2024-05-09T00:56:33.592Z,964.1700
2024-05-09T00:56:44.652Z,964.1700
2024-05-09T00:56:55.712Z,964.1700
2024-05-09T00:57:06.821Z,964.1700
2024-05-09T00:57:17.894Z,964.1500
2024-05-09T00:57:28.960Z,964.1500
2024-05-09T00:57:40.027Z,964.1700
2024-05-09T00:57:51.076Z,964.1500
2024-05-09T00:58:02.103Z,964.1700
2024-05-09T00:58:13.165Z,964.1500
2024-05-09T00:58:24.203Z,964.1500
2024-05-09T00:58:35.254Z,964.1500
2024-05-09T00:58:46.349Z,964.1500
2024-05-09T00:58:57.459Z,964.1500
2024-05-09T00:59:08.560Z,964.1700
2024-05-09T00:59:19.650Z,964.1700
2024-05-09T00:59:30.752Z,964.1500
2024-05-09T00:59:41.820Z,964.1500
2024-05-09T00:59:52.903Z,964.1500
2024-05-09T01:00:05.986Z,964.1500
2024-05-09T01:00:26.222Z,964.1500
2024-05-09T01:00:38.734Z,964.1500
2024-05-09T01:00:51.159Z,964.1500
2024-05-09T01:01:02.307Z,964.1500
2024-05-09T01:01:13.435Z,964.1700
2024-05-09T01:01:24.535Z,964.1500
2024-05-09T01:01:35.810Z,964.1500
2024-05-09T01:01:47.027Z,964.1500
2024-05-09T01:01:58.339Z,964.1500
2024-05-09T01:02:09.579Z,964.1500
2024-05-09T01:02:20.703Z,964.1500
2024-05-09T01:02:31.871Z,964.1500
2024-05-09T01:02:43.121Z,964.1500
2024-05-09T01:02:54.360Z,964.1500
2024-05-09T01:03:06.068Z,964.1500
2024-05-09T01:03:17.585Z,964.1500
2024-05-09T01:03:29.044Z,964.1500
2024-05-09T01:03:40.433Z,964.1500
2024-05-09T01:03:51.955Z,964.1500
2024-05-09T01:04:03.504Z,964.1500
2024-05-09T01:04:14.597Z,964.1500
2024-05-09T01:04:25.670Z,964.1700
2024-05-09T01:04:36.738Z,964.1700
2024-05-09T01:04:47.914Z,964.1500
2024-05-09T01:04:59.063Z,964.1700
2024-05-09T01:05:10.343Z,964.1700
2024-05-09T01:05:21.528Z,964.1700
2024-05-09T01:05:32.702Z,964.1700
2024-05-09T01:05:44.002Z,964.1300
2024-05-09T01:05:55.276Z,964.1500
2024-05-09T01:06:06.423Z,964.1500
2024-05-09T01:06:17.469Z,964.1700
2024-05-09T01:06:28.531Z,964.1700
2024-05-09T01:06:39.579Z,964.1700
2024-05-09T01:06:50.646Z,964.1700
2024-05-09T01:07:01.702Z,964.1700
2024-05-09T01:07:12.735Z,964.1500
2024-05-09T01:07:23.785Z,964.1500
2024-05-09T01:07:34.843Z,964.1700
2024-05-09T01:07:46.140Z,964.1700
2024-05-09T01:07:57.227Z,964.1700
2024-05-09T01:08:08.808Z,964.1700
2024-05-09T01:08:20.556Z,964.1700
2024-05-09T01:08:31.648Z,964.1500
2024-05-09T01:08:42.805Z,964.1500
2024-05-09T01:08:53.853Z,964.1300
2024-05-09T01:09:04.898Z,964.1300
2024-05-09T01:09:15.949Z,964.1300
2024-05-09T01:09:27.002Z,964.1300
2024-05-09T01:09:38.043Z,964.1300
2024-05-09T01:09:49.116Z,964.1500
2024-05-09T01:10:00.212Z,964.1300
2024-05-09T01:10:17.073Z,964.1300
2024-05-09T01:10:34.012Z,964.1300
2024-05-09T01:10:47.109Z,964.1300
2024-05-09T01:10:59.817Z,964.1300
2024-05-09T01:11:11.066Z,964.1300
2024-05-09T01:11:22.368Z,964.1300
2024-05-09T01:11:33.584Z,964.1300
2024-05-09T01:11:44.872Z,964.1500
2024-05-09T01:11:56.078Z,964.1500
2024-05-09T01:12:07.248Z,964.1300
2024-05-09T01:12:18.574Z,964.1100
2024-05-09T01:12:29.873Z,964.1500
2024-05-09T01:12:40.953Z,964.1500
2024-05-09T01:12:52.024Z,964.1500
2024-05-09T01:13:03.056Z,964.1500
2024-05-09T01:13:14.207Z,964.1300
2024-05-09T01:13:25.262Z,964.1300
2024-05-09T01:13:36.313Z,964.1300
2024-05-09T01:13:47.345Z,964.1300
2024-05-09T01:13:58.425Z,964.1300
2024-05-09T01:14:09.607Z,964.1100
2024-05-09T01:14:20.680Z,964.1300
2024-05-09T01:14:31.741Z,964.1100
2024-05-09T01:14:42.775Z,964.1100
2024-05-09T01:14:53.853Z,964.0900
2024-05-09T01:15:04.901Z,964.1100
2024-05-09T01:15:15.947Z,964.0900
2024-05-09T01:15:26.991Z,964.0900
2024-05-09T01:15:38.072Z,964.0900
2024-05-09T01:15:49.125Z,964.0900
2024-05-09T01:16:00.181Z,964.1100
2024-05-09T01:16:11.277Z,964.0900
2024-05-09T01:16:22.298Z,964.1100
2024-05-09T01:16:33.417Z,964.0900
2024-05-09T01:16:44.539Z,964.0900
2024-05-09T01:16:55.611Z,964.0900
2024-05-09T01:17:06.795Z,964.0900
2024-05-09T01:17:18.018Z,964.0900
2024-05-09T01:17:29.286Z,964.0900
2024-05-09T01:17:40.699Z,964.0900
2024-05-09T01:17:52.059Z,964.1100
2024-05-09T01:18:03.409Z,964.0900
2024-05-09T01:18:14.746Z,964.0900
2024-05-09T01:18:26.070Z,964.0900
2024-05-09T01:18:37.223Z,964.0900
2024-05-09T01:18:48.386Z,964.0900
2024-05-09T01:18:59.512Z,964.0900
2024-05-09T01:19:10.729Z,964.0900
2024-05-09T01:19:22.009Z,964.0900
2024-05-09T01:19:33.212Z,964.0900
2024-05-09T01:19:44.400Z,964.0900
2024-05-09T01:19:55.495Z,964.0900
2024-05-09T01:20:10.638Z,964.0900
2024-05-09T01:20:32.115Z,964.0900
2024-05-09T01:20:43.409Z,964.0900
2024-05-09T01:20:56.228Z,964.1100
2024-05-09T01:21:07.258Z,964.1100
2024-05-09T01:21:18.420Z,964.0900
2024-05-09T01:21:29.544Z,964.1100
2024-05-09T01:21:40.610Z,964.1100
2024-05-09T01:21:51.644Z,964.1100
2024-05-09T01:22:02.706Z,964.1100
2024-05-09T01:22:13.722Z,964.1100
2024-05-09T01:22:24.781Z,964.1100
2024-05-09T01:22:35.838Z,964.0900
2024-05-09T01:22:46.973Z,964.1100
2024-05-09T01:22:58.107Z,964.0900
2024-05-09T01:23:09.860Z,964.0900
2024-05-09T01:23:21.291Z,964.1100
2024-05-09T01:23:32.634Z,964.1100
2024-05-09T01:23:43.804Z,964.1100
2024-05-09T01:23:54.854Z,964.1100
2024-05-09T01:24:05.909Z,964.1100
2024-05-09T01:24:16.925Z,964.0900
2024-05-09T01:24:27.988Z,964.0900
2024-05-09T01:24:39.029Z,964.0900
2024-05-09T01:24:50.079Z,964.0900
2024-05-09T01:25:01.158Z,964.0900
2024-05-09T01:25:12.213Z,964.0900
2024-05-09T01:25:23.275Z,964.0700
2024-05-09T01:25:34.323Z,964.0900
2024-05-09T01:25:46.445Z,964.0900
2024-05-09T01:25:58.032Z,964.1100
2024-05-09T01:26:09.109Z,964.1100
2024-05-09T01:26:20.393Z,964.1100
2024-05-09T01:26:31.551Z,964.0900
2024-05-09T01:26:42.657Z,964.0900
2024-05-09T01:26:53.692Z,964.0700
2024-05-09T01:27:04.739Z,964.0700
2024-05-09T01:27:15.789Z,964.0700
2024-05-09T01:27:26.826Z,964.0900
2024-05-09T01:27:37.872Z,964.0700
2024-05-09T01:27:48.933Z,964.0700
2024-05-09T01:27:59.991Z,964.0700
2024-05-09T01:28:11.046Z,964.0700
2024-05-09T01:28:22.111Z,964.0700
2024-05-09T01:28:33.164Z,964.0900
2024-05-09T01:28:44.280Z,964.0900
2024-05-09T01:28:55.433Z,964.0900
2024-05-09T01:29:06.629Z,964.0700
2024-05-09T01:29:17.706Z,964.0700
2024-05-09T01:29:28.910Z,964.0700
2024-05-09T01:29:40.048Z,964.0700
2024-05-09T01:29:51.145Z,964.0700
2024-05-09T01:30:03.027Z,964.0700
2024-05-09T01:30:21.062Z,964.0500
2024-05-09T01:30:36.112Z,964.0500
2024-05-09T01:30:48.866Z,964.0700
2024-05-09T01:30:59.920Z,964.0700
2024-05-09T01:31:10.980Z,964.0500
2024-05-09T01:31:22.160Z,964.0700
2024-05-09T01:31:33.242Z,964.0700
2024-05-09T01:31:44.399Z,964.0500
2024-05-09T01:31:55.553Z,964.0500
2024-05-09T01:32:06.791Z,964.0500
2024-05-09T01:32:17.954Z,964.0300
2024-05-09T01:32:29.139Z,964.0300
2024-05-09T01:32:40.395Z,964.0300
2024-05-09T01:32:51.757Z,964.0300
2024-05-09T01:33:03.389Z,964.0300
2024-05-09T01:33:14.974Z,964.0300
2024-05-09T01:33:26.445Z,964.0300
2024-05-09T01:33:38.341Z,964.0300
2024-05-09T01:33:49.697Z,964.0500
2024-05-09T01:34:00.948Z,964.0300
2024-05-09T01:34:12.034Z,964.0300
2024-05-09T01:34:23.118Z,964.0100
2024-05-09T01:34:34.136Z,964.0100
2024-05-09T01:34:45.179Z,964.0300
2024-05-09T01:34:56.264Z,964.0100
2024-05-09T01:35:07.395Z,964.0300
2024-05-09T01:35:18.529Z,964.0300
2024-05-09T01:35:29.699Z,964.0100
2024-05-09T01:35:41.953Z,964.0100
2024-05-09T01:35:53.863Z,964.0300
2024-05-09T01:36:04.944Z,964.0300
2024-05-09T01:36:16.020Z,964.0300
2024-05-09T01:36:27.097Z,964.0300
2024-05-09T01:36:38.137Z,964.0100
2024-05-09T01:36:49.155Z,964.0100
2024-05-09T01:37:00.215Z,963.9900
2024-05-09T01:37:11.266Z,964.0100
2024-05-09T01:37:22.320Z,964.0100
2024-05-09T01:37:33.358Z,964.0300
2024-05-09T01:37:44.440Z,964.0300
2024-05-09T01:37:55.543Z,964.0300
2024-05-09T01:38:06.823Z,964.0300
2024-05-09T01:38:18.000Z,964.0300
2024-05-09T01:38:29.120Z,964.0300
2024-05-09T01:38:40.275Z,964.0300
2024-05-09T01:38:51.315Z,964.0300
2024-05-09T01:39:02.388Z,964.0100
2024-05-09T01:39:13.448Z,964.0100
2024-05-09T01:39:24.480Z,964.0300
2024-05-09T01:39:35.529Z,964.0300
2024-05-09T01:39:46.583Z,964.0300
2024-05-09T01:39:57.647Z,964.0300
2024-05-09T01:40:12.289Z,964.0300
2024-05-09T01:40:35.542Z,964.0100
2024-05-09T01:40:42.613Z,964.0300
2024-05-09T01:40:53.731Z,964.0300
2024-05-09T01:41:04.809Z,964.0100
2024-05-09T01:41:15.978Z,964.0300
2024-05-09T01:41:27.142Z,964.0300
2024-05-09T01:41:38.290Z,964.0300
2024-05-09T01:41:49.318Z,964.0100
2024-05-09T01:42:00.374Z,964.0300
2024-05-09T01:42:11.417Z,964.0300
2024-05-09T01:42:22.435Z,964.0300
2024-05-09T01:42:33.488Z,964.0100
2024-05-09T01:42:44.528Z,964.0100
2024-05-09T01:42:55.568Z,964.0300
2024-05-09T01:43:06.944Z,964.0100
2024-05-09T01:43:18.285Z,964.0300
2024-05-09T01:43:29.328Z,964.0300
2024-05-09T01:43:40.361Z,964.0100
2024-05-09T01:43:51.453Z,963.9900
2024-05-09T01:44:02.479Z,963.9900
2024-05-09T01:44:13.642Z,964.0100
2024-05-09T01:44:24.763Z,964.0100
2024-05-09T01:44:35.891Z,964.0100
2024-05-09T01:44:46.944Z,964.0100
2024-05-09T01:44:57.976Z,963.9900
2024-05-09T01:45:09.022Z,963.9900
2024-05-09T01:45:20.084Z,963.9900
2024-05-09T01:45:31.176Z,963.9900
2024-05-09T01:45:42.271Z,964.0100
2024-05-09T01:45:53.265Z,964.0100
2024-05-09T01:46:04.311Z,963.9900
2024-05-09T01:46:15.378Z,963.9900
2024-05-09T01:46:26.416Z,964.0100
2024-05-09T01:46:37.460Z,963.9900
2024-05-09T01:46:48.567Z,963.9900
2024-05-09T01:46:59.691Z,963.9900
2024-05-09T01:47:10.905Z,963.9900
2024-05-09T01:47:22.314Z,963.9900
2024-05-09T01:47:33.609Z,964.0100
2024-05-09T01:47:44.938Z,964.0100
2024-05-09T01:47:56.287Z,964.0100
2024-05-09T01:48:07.552Z,964.0100
2024-05-09T01:48:18.808Z,964.0100
2024-05-09T01:48:30.018Z,963.9900
2024-05-09T01:48:41.282Z,964.0100
2024-05-09T01:48:52.436Z,963.9700
2024-05-09T01:49:03.647Z,963.9900
2024-05-09T01:49:14.868Z,963.9700
2024-05-09T01:49:26.116Z,963.9900
2024-05-09T01:49:37.466Z,963.9900
2024-05-09T01:49:48.603Z,963.9700
2024-05-09T01:49:59.700Z,963.9900
2024-05-09T01:50:11.106Z,963.9700
2024-05-09T01:50:33.634Z,963.9900
2024-05-09T01:50:42.277Z,964.0100
2024-05-09T01:50:54.371Z,964.0100
2024-05-09T01:51:05.442Z,964.0100
2024-05-09T01:51:16.660Z,963.9900
2024-05-09T01:51:27.732Z,964.0100
2024-05-09T01:51:38.764Z,964.0100
2024-05-09T01:51:49.825Z,963.9900
2024-05-09T01:52:00.931Z,963.9900
2024-05-09T01:52:11.951Z,963.9900
2024-05-09T01:52:23.082Z,963.9900
2024-05-09T01:52:34.128Z,963.9900
2024-05-09T01:52:45.304Z,963.9900
2024-05-09T01:52:56.472Z,963.9900
2024-05-09T01:53:07.688Z,963.9900
2024-05-09T01:53:18.833Z,963.9900
2024-05-09T01:53:29.930Z,963.9900
2024-05-09T01:53:41.050Z,963.9700
2024-05-09T01:53:52.112Z,963.9900
2024-05-09T01:54:03.156Z,963.9900
2024-05-09T01:54:14.194Z,963.9900
2024-05-09T01:54:25.280Z,963.9900
2024-05-09T01:54:36.314Z,963.9700
2024-05-09T01:54:47.409Z,963.9700
2024-05-09T01:55:00.701Z,963.9700
2024-05-09T01:55:13.161Z,963.9700
2024-05-09T01:55:24.240Z,963.9500
2024-05-09T01:55:35.327Z,963.9700
2024-05-09T01:55:46.434Z,963.9700
2024-05-09T01:55:57.490Z,963.9700
2024-05-09T01:56:08.567Z,963.9700
2024-05-09T01:56:19.633Z,963.9700
2024-05-09T01:56:30.834Z,963.9700
2024-05-09T01:56:41.984Z,963.9700
2024-05-09T01:56:53.042Z,963.9500
2024-05-09T01:57:04.075Z,963.9700
2024-05-09T01:57:15.152Z,963.9700
2024-05-09T01:57:26.197Z,963.9500
2024-05-09T01:57:37.253Z,963.9400
2024-05-09T01:57:48.285Z,963.9500
2024-05-09T01:57:59.360Z,963.9500
2024-05-09T01:58:10.419Z,963.9500
2024-05-09T01:58:21.489Z,963.9500
2024-05-09T01:58:32.545Z,963.9400
2024-05-09T01:58:43.590Z,963.9400
2024-05-09T01:58:54.688Z,963.9500
2024-05-09T01:59:05.760Z,963.9500
2024-05-09T01:59:16.841Z,963.9400
2024-05-09T01:59:27.953Z,963.9200
2024-05-09T01:59:39.104Z,963.9500
2024-05-09T01:59:50.131Z,963.9500
2024-05-09T02:00:01.225Z,963.9500
2024-05-09T02:00:15.725Z,963.9500
2024-05-09T02:00:36.173Z,963.9400
2024-05-09T02:00:46.166Z,963.9500
2024-05-09T02:00:57.283Z,963.9500
2024-05-09T02:01:08.423Z,963.9500
2024-05-09T02:01:19.489Z,963.9400
2024-05-09T02:01:30.635Z,963.9200
2024-05-09T02:01:56.583Z,963.9400
2024-05-09T02:02:04.589Z,963.9200
2024-05-09T02:02:15.854Z,963.9400
2024-05-09T02:02:27.016Z,963.9200
2024-05-09T02:02:38.202Z,963.9200
2024-05-09T02:02:49.384Z,963.9200
2024-05-09T02:03:00.844Z,963.9000
2024-05-09T02:03:15.212Z,963.9000
2024-05-09T02:03:29.118Z,963.9200
2024-05-09T02:03:40.448Z,963.9000
2024-05-09T02:03:51.659Z,963.9000
2024-05-09T02:04:03.240Z,963.8800
2024-05-09T02:04:14.590Z,963.9000
2024-05-09T02:04:25.966Z,963.8800
2024-05-09T02:04:37.149Z,963.8800
2024-05-09T02:04:48.353Z,963.8800
2024-05-09T02:04:59.599Z,963.8800
2024-05-09T02:05:10.923Z,963.8800
2024-05-09T02:05:22.244Z,963.8800
2024-05-09T02:05:33.444Z,963.8800
2024-05-09T02:05:44.803Z,963.8800
2024-05-09T02:05:56.007Z,963.8600
2024-05-09T02:06:07.176Z,963.8800
2024-05-09T02:06:18.228Z,963.8400
2024-05-09T02:06:29.266Z,963.8400
2024-05-09T02:06:40.305Z,963.8600
2024-05-09T02:06:51.371Z,963.8600
2024-05-09T02:07:02.418Z,963.8600
2024-05-09T02:07:13.497Z,963.8600
2024-05-09T02:07:24.549Z,963.8600
2024-05-09T02:07:35.611Z,963.8600
2024-05-09T02:07:46.680Z,963.8600
2024-05-09T02:07:57.789Z,963.8600
2024-05-09T02:08:08.949Z,963.8600
2024-05-09T02:08:20.203Z,963.8600
2024-05-09T02:08:31.403Z,963.8600
2024-05-09T02:08:42.606Z,963.8400
2024-05-09T02:08:53.663Z,963.8600
2024-05-09T02:09:04.709Z,963.8400
2024-05-09T02:09:15.753Z,963.8400
2024-05-09T02:09:26.809Z,963.8400
2024-05-09T02:09:37.854Z,963.8400
2024-05-09T02:09:48.913Z,963.8400
2024-05-09T02:09:59.964Z,963.8400
2024-05-09T02:10:16.640Z,963.8400
2024-05-09T02:10:32.488Z,963.8400
2024-05-09T02:10:45.167Z,963.8200
2024-05-09T02:10:56.562Z,963.8400
2024-05-09T02:11:07.709Z,963.8400
2024-05-09T02:11:18.859Z,963.8600
2024-05-09T02:11:30.017Z,963.8600
2024-05-09T02:11:41.220Z,963.8400
2024-05-09T02:11:52.392Z,963.8400
2024-05-09T02:12:03.532Z,963.8400
2024-05-09T02:12:14.853Z,963.8400
2024-05-09T02:12:26.086Z,963.8400
2024-05-09T02:12:37.184Z,963.8600
2024-05-09T02:12:48.226Z,963.8600
2024-05-09T02:12:59.300Z,963.8400
2024-05-09T02:13:10.361Z,963.8400
2024-05-09T02:13:21.386Z,963.8600
2024-05-09T02:13:32.612Z,963.8600
2024-05-09T02:13:43.721Z,963.8600
2024-05-09T02:13:54.832Z,963.8600
2024-05-09T02:14:05.927Z,963.8600
2024-05-09T02:14:16.995Z,963.8600
2024-05-09T02:14:28.159Z,963.8600
2024-05-09T02:14:39.286Z,963.8600